Time;durP1;ratioP1;P1;durP2;ratioP2;P2;SDS_P1;SDS_P2;PMS_P1;PMS_P2;Temp;Humidity;BMP_temperature;BMP_pressure;BME280_temperature;BME280_humidity;BME280_pressure;Samples;Min_cycle;Max_cycle;Signal;HPM_P1;HPM_P2
2022/11/25 00:02:23;;;;;;;;;;;28.60;92.00;;;;;;5086740;28;20260;-52
2022/11/25 00:04:49;;;;;;;;;;;28.60;92.00;;;;;;5086593;28;19975;-51
2022/11/25 00:07:15;;;;;;;;;;;28.50;91.90;;;;;;5087174;28;24083;-52
2022/11/25 00:09:41;;;;;;;;;;;28.50;92.00;;;;;;5086711;28;20144;-55
2022/11/25 00:12:07;;;;;;;;;;;28.50;92.10;;;;;;5086429;28;24101;-52
2022/11/25 00:14:33;;;;;;;;;;;28.50;92.10;;;;;;5086155;28;24074;-55
2022/11/25 00:16:59;;;;;;;;;;;28.50;92.10;;;;;;5086794;28;20042;-58
2022/11/25 00:19:25;;;;;;;;;;;28.50;92.10;;;;;;5086324;28;24085;-56
2022/11/25 00:21:52;;;;;;;;;;;28.50;92.10;;;;;;5086794;28;19900;-52
2022/11/25 00:24:18;;;;;;;;;;;28.50;91.90;;;;;;5086131;28;19931;-52
2022/11/25 00:26:45;;;;;;;;;;;28.50;92.00;;;;;;5086347;28;19912;-57
2022/11/25 00:29:13;;;;;;;;;;;28.50;91.90;;;;;;5086282;28;19908;-53
2022/11/25 00:31:39;;;;;;;;;;;28.50;91.90;;;;;;5086472;28;19927;-52
2022/11/25 00:34:06;;;;;;;;;;;28.50;92.00;;;;;;5086133;28;25104;-52
2022/11/25 00:36:33;;;;;;;;;;;28.50;91.90;;;;;;5085828;28;25111;-54
2022/11/25 00:39:04;;;;;;;;;;;28.40;91.90;;;;;;5085911;28;24110;-52
2022/11/25 00:44:34;;;;;;;;;;;28.40;91.90;;;;;;5085693;28;25089;-58
2022/11/25 00:47:03;;;;;;;;;;;28.40;91.90;;;;;;5086505;28;19971;-52
2022/11/25 00:49:30;;;;;;;;;;;28.40;91.90;;;;;;5085985;28;20125;-52
2022/11/25 00:51:57;;;;;;;;;;;28.40;91.90;;;;;;5086041;28;20379;-54
2022/11/25 00:54:23;;;;;;;;;;;28.40;91.90;;;;;;5085358;28;20024;-56
2022/11/25 00:56:50;;;;;;;;;;;28.40;91.90;;;;;;5086129;28;20164;-52
2022/11/25 00:59:16;;;;;;;;;;;28.40;91.90;;;;;;5085782;28;25114;-54
2022/11/25 01:01:42;;;;;;;;;;;28.40;91.90;;;;;;5086127;28;20287;-54
2022/11/25 01:04:08;;;;;;;;;;;28.40;91.90;;;;;;5085649;28;20045;-51
2022/11/25 01:06:36;;;;;;;;;;;28.40;91.80;;;;;;5085641;28;19915;-51
2022/11/25 01:09:02;;;;;;;;;;;28.40;91.80;;;;;;5085363;28;19908;-51
2022/11/25 01:11:29;;;;;;;;;;;28.40;91.90;;;;;;5085672;28;19900;-52
2022/11/25 01:13:55;;;;;;;;;;;28.30;91.90;;;;;;5085123;28;25095;-52
2022/11/25 01:16:21;;;;;;;;;;;28.30;91.90;;;;;;5085754;28;20150;-51
2022/11/25 01:18:49;;;;;;;;;;;28.30;91.90;;;;;;5085494;28;20028;-50
2022/11/25 01:21:20;;;;;;;;;;;28.30;91.90;;;;;;5085288;28;20009;-50
2022/11/25 01:23:47;;;;;;;;;;;28.20;92.00;;;;;;5085234;28;19904;-52
2022/11/25 01:26:14;;;;;;;;;;;28.20;91.90;;;;;;5084900;28;19942;-53
2022/11/25 01:28:41;;;;;;;;;;;28.20;91.90;;;;;;5084855;28;20204;-56
2022/11/25 01:31:28;;;;;;;;;;;28.20;91.90;;;;;;5085434;28;20383;-51
2022/11/25 01:34:01;;;;;;;;;;;28.20;91.90;;;;;;5084875;28;20010;-52
2022/11/25 01:36:28;;;;;;;;;;;28.10;92.10;;;;;;5084614;28;24077;-51
2022/11/25 01:38:55;;;;;;;;;;;28.10;92.00;;;;;;5085266;28;20006;-50
2022/11/25 01:41:21;;;;;;;;;;;28.10;92.10;;;;;;5085264;28;20031;-51
2022/11/25 01:44:05;;;;;;;;;;;28.10;92.20;;;;;;5085330;28;20183;-52
2022/11/25 01:46:42;;;;;;;;;;;28.00;92.30;;;;;;5085127;28;19915;-52
2022/11/25 01:49:11;;;;;;;;;;;28.10;92.10;;;;;;5085106;28;19908;-57
2022/11/25 01:51:48;;;;;;;;;;;28.00;91.90;;;;;;5085174;28;19940;-54
2022/11/25 01:54:18;;;;;;;;;;;28.00;91.90;;;;;;5085148;28;19958;-50
2022/11/25 01:56:47;;;;;;;;;;;28.00;91.90;;;;;;5085258;28;19967;-51
2022/11/25 01:59:13;;;;;;;;;;;27.90;91.90;;;;;;5083486;28;19931;-55
2022/11/25 02:01:40;;;;;;;;;;;28.00;92.10;;;;;;5084771;28;19911;-56
2022/11/25 02:04:07;;;;;;;;;;;28.00;92.20;;;;;;5084601;28;19908;-51
2022/11/25 02:06:42;;;;;;;;;;;27.90;92.20;;;;;;5085043;28;19961;-52
2022/11/25 02:09:09;;;;;;;;;;;27.90;92.30;;;;;;5085116;28;20143;-53
2022/11/25 02:11:37;;;;;;;;;;;27.90;92.20;;;;;;5084693;28;24095;-58
2022/11/25 02:14:04;;;;;;;;;;;27.90;92.10;;;;;;5084277;28;24112;-55
2022/11/25 02:16:30;;;;;;;;;;;27.90;92.10;;;;;;5085347;28;20173;-64
2022/11/25 02:18:56;;;;;;;;;;;27.90;92.10;;;;;;5084453;28;20235;-52
2022/11/25 02:21:30;;;;;;;;;;;27.90;92.20;;;;;;5084632;28;20052;-51
2022/11/25 02:24:03;;;;;;;;;;;27.90;92.20;;;;;;5083499;28;19908;-54
2022/11/25 02:26:30;;;;;;;;;;;27.90;92.20;;;;;;5084704;28;19922;-54
2022/11/25 02:28:56;;;;;;;;;;;27.90;92.10;;;;;;5084645;28;20087;-53
2022/11/25 02:31:23;;;;;;;;;;;27.90;92.20;;;;;;5084963;28;19971;-51
2022/11/25 02:33:49;;;;;;;;;;;27.90;92.30;;;;;;5084654;28;19990;-53
2022/11/25 02:36:17;;;;;;;;;;;27.90;92.10;;;;;;5084083;28;19944;-50
2022/11/25 02:38:48;;;;;;;;;;;27.90;92.20;;;;;;5084614;28;19908;-52
2022/11/25 02:41:20;;;;;;;;;;;27.90;92.20;;;;;;5084029;28;20201;-50
2022/11/25 02:43:46;;;;;;;;;;;27.90;92.20;;;;;;5084162;28;19904;-52
2022/11/25 02:46:15;;;;;;;;;;;27.90;92.20;;;;;;5083827;28;19912;-58
2022/11/25 02:48:42;;;;;;;;;;;27.80;92.20;;;;;;5083759;28;19904;-57
2022/11/25 02:51:10;;;;;;;;;;;27.80;92.20;;;;;;5084629;28;19912;-58
2022/11/25 02:53:36;;;;;;;;;;;27.80;92.30;;;;;;5084127;28;19951;-55
2022/11/25 02:56:03;;;;;;;;;;;27.80;92.30;;;;;;5084345;28;19909;-55
2022/11/25 02:58:29;;;;;;;;;;;27.80;92.40;;;;;;5084385;28;19980;-53
2022/11/25 03:00:55;;;;;;;;;;;27.80;92.40;;;;;;5084272;28;19908;-51
2022/11/25 03:03:21;;;;;;;;;;;27.80;92.40;;;;;;5083876;28;19905;-59
2022/11/25 03:05:49;;;;;;;;;;;27.80;92.30;;;;;;5084302;28;20135;-57
2022/11/25 03:08:15;;;;;;;;;;;27.80;92.20;;;;;;5083065;28;19944;-51
2022/11/25 03:10:41;;;;;;;;;;;27.80;92.20;;;;;;5083967;28;19912;-58
2022/11/25 03:13:08;;;;;;;;;;;27.80;92.20;;;;;;5083865;28;24083;-54
2022/11/25 03:15:34;;;;;;;;;;;27.80;92.30;;;;;;5084252;28;19904;-52
2022/11/25 03:18:01;;;;;;;;;;;27.80;92.20;;;;;;5087732;28;19911;-59
2022/11/25 03:20:27;;;;;;;;;;;27.80;92.20;;;;;;5087679;28;19978;-55
2022/11/25 03:22:53;;;;;;;;;;;27.80;92.10;;;;;;5087532;28;19904;-59
2022/11/25 03:25:20;;;;;;;;;;;27.80;92.20;;;;;;5087595;28;19967;-52
2022/11/25 03:27:46;;;;;;;;;;;27.70;92.10;;;;;;5087578;28;20086;-50
2022/11/25 03:30:17;;;;;;;;;;;27.80;92.20;;;;;;5087602;28;20036;-59
2022/11/25 03:32:44;;;;;;;;;;;27.70;92.30;;;;;;5087753;28;19946;-57
2022/11/25 03:35:10;;;;;;;;;;;27.70;92.30;;;;;;5087738;28;19908;-50
2022/11/25 03:37:37;;;;;;;;;;;27.70;92.30;;;;;;5087192;28;24091;-54
2022/11/25 03:40:04;;;;;;;;;;;27.70;92.40;;;;;;5083501;28;19908;-50
2022/11/25 03:42:32;;;;;;;;;;;27.70;92.40;;;;;;5086818;28;19908;-50
2022/11/25 03:44:58;;;;;;;;;;;27.60;92.40;;;;;;5081084;28;19967;-50
2022/11/25 03:47:25;;;;;;;;;;;27.60;92.50;;;;;;5075243;28;19913;-52
2022/11/25 03:49:51;;;;;;;;;;;27.60;92.40;;;;;;5078332;28;19975;-51
2022/11/25 03:52:17;;;;;;;;;;;27.60;92.40;;;;;;5072346;28;19948;-54
2022/11/25 03:54:45;;;;;;;;;;;27.60;92.50;;;;;;5084541;28;19904;-50
2022/11/25 03:57:11;;;;;;;;;;;27.60;92.60;;;;;;5087019;28;20069;-50
2022/11/25 03:59:37;;;;;;;;;;;27.60;92.50;;;;;;5087056;28;19908;-52
2022/11/25 04:02:03;;;;;;;;;;;27.50;92.50;;;;;;5086809;28;19947;-52
2022/11/25 04:04:29;;;;;;;;;;;27.50;92.60;;;;;;5085593;28;19963;-55
2022/11/25 04:06:56;;;;;;;5.68;3.55;;;27.50;92.60;;;;;;5086375;28;19912;-57
2022/11/25 04:09:24;;;;;;;14.02;5.78;;;27.50;92.40;;;;;;5086803;28;20134;-52
2022/11/25 04:14:36;;;;;;;14.93;7.50;;;27.50;92.50;;;;;;5086608;28;20224;-53
2022/11/25 04:17:02;;;;;;;21.00;9.23;;;27.40;92.50;;;;;;5086623;28;20036;-53
2022/11/25 04:19:29;;;;;;;21.00;9.73;;;27.40;92.60;;;;;;5086532;28;20032;-52
2022/11/25 04:21:58;;;;;;;11.93;5.85;;;27.40;92.70;;;;;;5086792;28;20040;-52
2022/11/25 04:24:25;;;;;;;7.57;3.72;;;27.40;92.80;;;;;;5085405;28;20320;-55
2022/11/25 04:26:52;;;;;;;6.13;3.55;;;27.40;92.90;;;;;;5081390;28;20024;-58
2022/11/25 04:29:19;;;;;;;6.03;3.50;;;27.30;92.90;;;;;;5085690;28;20047;-54
2022/11/25 04:31:45;;;;;;;6.03;3.67;;;27.30;93.00;;;;;;5086335;28;20100;-53
2022/11/25 04:34:12;;;;;;;8.02;4.63;;;27.30;93.00;;;;;;5086378;28;20032;-53
2022/11/25 04:36:39;;;;;;;14.80;9.13;;;27.30;93.00;;;;;;5085974;28;20336;-58
2022/11/25 04:39:05;;;;;;;12.43;7.47;;;27.30;93.00;;;;;;5086028;28;20020;-55
2022/11/25 04:41:32;;;;;;;12.88;7.13;;;27.30;93.00;;;;;;5086378;28;20089;-53
2022/11/25 04:44:01;;;;;;;10.40;5.72;;;27.30;93.00;;;;;;5086093;28;20032;-54
2022/11/25 04:46:36;;;;;;;8.98;4.70;;;27.30;93.00;;;;;;5085944;28;20024;-52
2022/11/25 04:49:03;;;;;;;10.13;4.75;;;27.30;93.00;;;;;;5085832;28;20024;-54
2022/11/25 04:51:30;;;;;;;5.93;3.83;;;27.30;92.90;;;;;;5085794;28;20026;-52
2022/11/25 04:53:57;;;;;;;7.43;4.07;;;27.30;93.00;;;;;;5085925;28;20012;-56
2022/11/25 04:56:24;;;;;;;12.02;7.35;;;27.30;92.90;;;;;;5086102;28;20052;-59
2022/11/25 05:01:35;;;;;;;18.08;12.10;;;27.30;93.10;;;;;;5083590;28;20047;-56
2022/11/25 05:04:01;;;;;;;13.77;9.20;;;27.30;93.10;;;;;;5085765;28;20048;-51
2022/11/25 05:06:29;;;;;;;13.48;9.18;;;27.30;93.10;;;;;;5085512;28;20035;-53
2022/11/25 05:08:56;;;;;;;10.25;7.82;;;27.30;93.30;;;;;;5085784;28;20032;-54
2022/11/25 05:11:22;;;;;;;8.43;7.45;;;27.30;93.10;;;;;;5084863;28;20028;-53
2022/11/25 05:13:49;;;;;;;10.00;6.30;;;27.30;93.20;;;;;;5085812;28;20082;-58
2022/11/25 05:16:15;;;;;;;5.75;4.90;;;27.30;93.20;;;;;;5085458;28;20039;-54
2022/11/25 05:18:42;;;;;;;9.48;5.95;;;27.30;93.10;;;;;;5085254;28;20216;-52
2022/11/25 05:21:08;;;;;;;11.45;6.22;;;27.30;93.10;;;;;;5085169;28;20028;-57
2022/11/25 05:23:35;;;;;;;8.10;4.97;;;27.30;93.00;;;;;;5085424;28;20320;-52
2022/11/25 05:26:03;;;;;;;8.93;4.95;;;27.30;93.00;;;;;;5085265;28;20028;-55
2022/11/25 05:28:30;;;;;;;6.78;4.35;;;27.30;92.80;;;;;;5085040;28;20096;-58
2022/11/25 05:30:57;;;;;;;7.00;4.88;;;27.30;92.80;;;;;;5085106;28;20055;-54
2022/11/25 05:33:24;;;;;;;14.52;6.78;;;27.30;92.80;;;;;;5084975;28;20020;-52
2022/11/25 05:35:58;;;;;;;15.73;7.45;;;27.30;93.10;;;;;;5085015;28;20020;-54
2022/11/25 05:38:25;;;;;;;13.48;7.30;;;27.30;92.80;;;;;;5084738;28;20076;-51
2022/11/25 05:40:53;;;;;;;13.25;5.97;;;27.30;92.80;;;;;;5084940;28;20020;-51
2022/11/25 05:43:19;;;;;;;10.80;5.97;;;27.30;92.70;;;;;;5084671;28;20031;-51
2022/11/25 05:45:45;;;;;;;;;;;27.30;92.80;;;;;;5083757;28;20254;-58
2022/11/25 05:48:11;;;;;;;;;;;27.30;92.70;;;;;;5085166;28;19951;-53
2022/11/25 05:50:38;;;;;;;;;;;27.30;92.60;;;;;;5084848;28;24115;-59
2022/11/25 05:53:04;;;;;;;;;;;27.30;92.80;;;;;;5085045;28;20019;-53
2022/11/25 05:55:30;;;;;;;;;;;27.30;92.70;;;;;;5085113;28;19904;-52
2022/11/25 05:57:57;;;;;;;;;;;27.30;92.70;;;;;;5084716;28;24061;-53
2022/11/25 06:00:23;;;;;;;;;;;27.30;92.90;;;;;;5084682;28;20228;-55
2022/11/25 06:02:50;;;;;;;;;;;27.30;92.80;;;;;;5084526;28;19905;-53
2022/11/25 06:05:16;;;;;;;;;;;27.30;92.80;;;;;;5084992;28;19904;-56
2022/11/25 06:07:42;;;;;;;;;;;27.30;92.90;;;;;;5084809;28;24084;-52
2022/11/25 06:10:08;;;;;;;;;;;27.30;93.00;;;;;;5084910;28;19911;-54
2022/11/25 06:12:35;;;;;;;;;;;27.30;93.10;;;;;;5085059;28;20066;-57
2022/11/25 06:15:01;;;;;;;;;;;27.20;93.20;;;;;;5084395;28;20104;-56
2022/11/25 06:17:27;;;;;;;;;;;27.30;93.10;;;;;;5084911;28;20029;-59
2022/11/25 06:19:53;;;;;;;;;;;27.30;93.10;;;;;;5084576;28;20100;-56
2022/11/25 06:22:19;;;;;;;;;;;27.20;93.00;;;;;;5083954;28;19946;-56
2022/11/25 06:24:46;;;;;;;;;;;27.20;92.90;;;;;;5084317;28;19900;-55
2022/11/25 06:27:12;;;;;;;;;;;27.20;92.80;;;;;;5084428;28;19912;-53
2022/11/25 06:29:38;;;;;;;;;;;27.20;92.70;;;;;;5083990;28;19901;-55
2022/11/25 06:32:04;;;;;;;;;;;27.30;92.60;;;;;;5084721;28;19940;-56
2022/11/25 06:34:30;;;;;;;;;;;27.30;92.60;;;;;;5084165;28;24072;-54
2022/11/25 06:36:56;;;;;;;;;;;27.30;92.60;;;;;;5084014;28;19916;-54
2022/11/25 06:39:22;;;;;;;;;;;27.30;92.60;;;;;;5083997;28;19920;-54
2022/11/25 06:41:48;;;;;;;;;;;27.30;92.50;;;;;;5084388;28;20172;-57
2022/11/25 06:44:15;;;;;;;;;;;27.20;92.50;;;;;;5084046;28;19904;-53
2022/11/25 06:46:41;;;;;;;;;;;27.20;92.40;;;;;;5083603;28;25088;-56
2022/11/25 06:49:07;;;;;;;;;;;27.20;92.40;;;;;;5083966;28;19908;-54
2022/11/25 06:51:33;;;;;;;;;;;27.20;92.40;;;;;;5083556;28;19983;-59
2022/11/25 06:53:59;;;;;;;;;;;27.20;92.40;;;;;;5083390;28;19900;-56
2022/11/25 06:56:26;;;;;;;;;;;27.20;92.40;;;;;;5083760;28;19912;-61
2022/11/25 06:58:53;;;;;;;;;;;27.20;92.20;;;;;;5083797;28;19939;-55
2022/11/25 07:01:20;;;;;;;;;;;27.20;92.30;;;;;;5083624;28;19904;-55
2022/11/25 07:03:48;;;;;;;;;;;27.20;92.10;;;;;;5083770;28;19904;-53
2022/11/25 07:06:15;;;;;;;;;;;27.10;92.20;;;;;;5083510;28;24056;-55
2022/11/25 07:08:41;;;;;;;;;;;27.10;92.00;;;;;;5083414;28;24103;-52
2022/11/25 07:11:09;;;;;;;;;;;27.10;92.00;;;;;;5084138;28;19908;-53
2022/11/25 07:13:35;;;;;;;;;;;27.10;92.10;;;;;;5083794;28;20235;-52
2022/11/25 07:16:02;;;;;;;;;;;27.10;92.00;;;;;;5083797;28;19915;-55
2022/11/25 07:18:29;;;;;;;;;;;27.10;92.00;;;;;;5083767;28;24101;-51
2022/11/25 07:20:55;;;;;;;;;;;27.10;92.00;;;;;;5083716;28;19904;-52
2022/11/25 07:23:21;;;;;;;;;;;27.10;92.00;;;;;;5083487;28;19904;-56
2022/11/25 07:25:47;;;;;;;;;;;27.10;92.00;;;;;;5083694;28;19908;-53
2022/11/25 07:28:13;;;;;;;;;;;27.10;92.00;;;;;;5083555;28;19904;-57
2022/11/25 07:30:40;;;;;;;;;;;27.10;92.00;;;;;;5083571;28;20013;-55
2022/11/25 07:33:06;;;;;;;;;;;27.10;92.00;;;;;;5084075;28;19907;-52
2022/11/25 07:35:33;;;;;;;;;;;27.00;91.90;;;;;;5083375;28;19900;-52
2022/11/25 07:37:59;;;;;;;;;;;27.00;92.00;;;;;;5083617;28;25098;-58
2022/11/25 07:40:25;;;;;;;;;;;27.10;92.20;;;;;;5083856;28;20017;-50
2022/11/25 07:42:51;;;;;;;;;;;27.00;91.90;;;;;;5083976;28;19900;-53
2022/11/25 07:45:17;;;;;;;;;;;27.00;92.00;;;;;;5083749;28;20203;-57
2022/11/25 07:47:43;;;;;;;;;;;27.00;92.00;;;;;;5083712;28;24098;-53
2022/11/25 07:50:09;;;;;;;;;;;27.00;91.90;;;;;;5083073;28;19911;-52
2022/11/25 07:52:39;;;;;;;;;;;27.00;91.80;;;;;;5082865;28;19946;-51
2022/11/25 07:55:06;;;;;;;;;;;27.00;91.80;;;;;;5083234;28;19942;-52
2022/11/25 07:57:32;;;;;;;;;;;27.00;91.80;;;;;;5083910;28;19905;-52
2022/11/25 07:59:58;;;;;;;;;;;27.00;91.80;;;;;;5083266;28;20038;-52
2022/11/25 08:02:24;;;;;;;;;;;27.00;91.90;;;;;;5083239;28;24103;-52
2022/11/25 08:04:51;;;;;;;;;;;26.90;91.90;;;;;;5086439;28;19963;-51
2022/11/25 08:07:17;;;;;;;;;;;26.90;91.90;;;;;;5086571;28;19919;-55
2022/11/25 08:09:43;;;;;;;;;;;27.00;92.00;;;;;;5086600;28;19900;-52
2022/11/25 08:12:10;;;;;;;;;;;26.90;91.90;;;;;;5086840;28;24096;-51
2022/11/25 08:14:36;;;;;;;;;;;26.90;91.70;;;;;;5086722;28;19904;-52
2022/11/25 08:17:04;;;;;;;;;;;26.90;91.70;;;;;;5086732;28;19915;-55
2022/11/25 08:19:31;;;;;;;;;;;26.90;91.70;;;;;;5086533;28;19946;-53
2022/11/25 08:21:57;;;;;;;;;;;26.90;91.90;;;;;;5086985;28;20042;-52
2022/11/25 08:24:23;;;;;;;;;;;26.90;91.80;;;;;;5086541;28;19942;-55
2022/11/25 08:26:50;;;;;;;;;;;26.80;91.80;;;;;;5086180;28;25066;-53
2022/11/25 08:29:17;;;;;;;;;;;26.80;91.90;;;;;;5086172;28;19907;-53
2022/11/25 08:31:43;;;;;;;;;;;26.80;91.80;;;;;;5085851;28;19935;-54
2022/11/25 08:34:15;;;;;;;;;;;26.80;91.80;;;;;;5086011;28;20092;-57
2022/11/25 08:36:41;;;;;;;;;;;26.80;91.90;;;;;;5085517;28;19916;-54
2022/11/25 08:39:07;;;;;;;;;;;26.70;91.80;;;;;;5086268;28;20155;-52
2022/11/25 08:41:34;;;;;;;;;;;26.70;92.00;;;;;;5086292;28;19904;-53
2022/11/25 08:44:02;;;;;;;;;;;26.70;92.20;;;;;;5086355;28;20010;-53
2022/11/25 08:46:32;;;;;;;;;;;26.70;92.00;;;;;;5085813;28;20009;-53
2022/11/25 08:48:58;;;;;;;;;;;26.70;92.10;;;;;;5085976;28;19906;-53
2022/11/25 08:51:26;;;;;;;;;;;26.70;92.10;;;;;;5085715;28;19944;-53
2022/11/25 08:53:52;;;;;;;;;;;26.70;92.10;;;;;;5085143;28;19907;-58
2022/11/25 08:56:19;;;;;;;;;;;26.70;92.10;;;;;;5086059;28;19939;-58
2022/11/25 08:58:45;;;;;;;;;;;26.70;92.00;;;;;;5085792;28;19944;-54
2022/11/25 09:01:12;;;;;;;;;;;26.70;92.00;;;;;;5085900;28;19916;-51
2022/11/25 09:03:40;;;;;;;;;;;26.70;92.10;;;;;;5085653;28;19912;-53
2022/11/25 09:06:07;;;;;;;;;;;26.70;92.10;;;;;;5085521;28;24104;-52
2022/11/25 09:08:34;;;;;;;;;;;26.60;92.10;;;;;;5085310;28;24070;-51
2022/11/25 09:11:00;;;;;;;;;;;26.60;92.20;;;;;;5085518;28;19996;-52
2022/11/25 09:13:26;;;;;;;;;;;26.60;92.30;;;;;;5085140;28;19951;-52
2022/11/25 09:15:52;;;;;;;;;;;26.60;92.20;;;;;;5085307;28;19947;-53
2022/11/25 09:18:19;;;;;;;;;;;26.60;92.20;;;;;;5085525;28;20097;-52
2022/11/25 09:20:46;;;;;;;;;;;26.60;92.20;;;;;;5085311;28;19904;-53
2022/11/25 09:23:12;;;;;;;;;;;26.60;92.30;;;;;;5085338;28;19904;-53
2022/11/25 09:25:39;;;;;;;;;;;26.60;92.50;;;;;;5085127;28;19909;-52
2022/11/25 09:28:05;;;;;;;;;;;26.60;92.30;;;;;;5085189;28;20097;-56
2022/11/25 09:30:31;;;;;;;;;;;26.60;92.30;;;;;;5085324;28;24086;-52
2022/11/25 09:32:57;;;;;;;;;;;26.60;92.30;;;;;;5085101;28;24109;-55
2022/11/25 09:35:24;;;;;;;;;;;26.60;92.40;;;;;;5084839;28;24066;-53
2022/11/25 09:37:51;;;;;;;;;;;26.60;92.30;;;;;;5084859;28;19998;-57
2022/11/25 09:40:26;;;;;;;;;;;26.70;92.40;;;;;;5084151;28;19904;-54
2022/11/25 09:49:04;;;;;;;;;;;26.60;92.60;;;;;;5084411;28;19942;-54
2022/11/25 09:51:39;;;;;;;;;;;26.60;92.60;;;;;;5084961;28;25102;-54
2022/11/25 09:54:17;;;;;;;;;;;26.60;92.70;;;;;;5084991;28;20306;-53
2022/11/25 09:56:50;;;;;;;;;;;26.60;92.70;;;;;;5084935;28;19909;-53
2022/11/25 09:59:29;;;;;;;;;;;26.60;92.70;;;;;;5084301;28;19922;-53
2022/11/25 10:01:59;;;;;;;;;;;26.60;92.70;;;;;;5084297;28;20092;-53
2022/11/25 10:04:29;;;;;;;;;;;26.60;92.80;;;;;;5084517;28;19950;-56
2022/11/25 10:07:00;;;;;;;;;;;26.60;92.70;;;;;;5084208;28;19918;-54
2022/11/25 10:09:28;;;;;;;;;;;26.60;92.70;;;;;;5080790;28;19908;-53
2022/11/25 10:12:05;;;;;;;;;;;26.50;92.70;;;;;;5084721;28;19908;-55
2022/11/25 10:14:38;;;;;;;;;;;26.50;92.80;;;;;;5084555;28;19908;-53
2022/11/25 10:17:20;;;;;;;;;;;26.50;92.70;;;;;;5084308;28;19909;-54
2022/11/25 10:20:01;;;;;;;;;;;26.50;92.60;;;;;;5084464;28;19901;-58
2022/11/25 10:22:36;;;;;;;;;;;26.50;92.50;;;;;;5084086;28;19916;-53
2022/11/25 10:25:11;;;;;;;;;;;26.50;92.60;;;;;;5083904;28;20077;-57
2022/11/25 10:27:41;;;;;;;;;;;26.50;92.60;;;;;;5084272;28;24098;-56
2022/11/25 10:30:14;;;;;;;;;;;26.50;92.50;;;;;;5084589;28;19901;-57
2022/11/25 10:32:42;;;;;;;;;;;26.50;92.50;;;;;;5084388;28;25057;-59
2022/11/25 10:35:18;;;;;;;;;;;26.50;92.50;;;;;;5084405;28;20160;-53
2022/11/25 10:37:45;;;;;;;;;;;26.40;92.50;;;;;;5084233;28;24116;-55
2022/11/25 10:40:15;;;;;;;;;;;26.40;92.60;;;;;;5084048;28;19908;-49
2022/11/25 10:42:41;;;;;;;;;;;26.40;92.70;;;;;;5084221;28;19912;-50
2022/11/25 10:45:08;;;;;;;;;;;26.40;92.70;;;;;;5084158;28;19940;-53
2022/11/25 10:48:00;;;;;;;;;;;26.40;92.60;;;;;;5083865;28;19958;-51
2022/11/25 10:50:30;;;;;;;;;;;26.40;92.60;;;;;;5082099;28;24111;-51
2022/11/25 10:53:01;;;;;;;;;;;26.40;92.70;;;;;;5083691;28;24069;-51
2022/11/25 10:55:29;;;;;;;;;;;26.40;92.70;;;;;;5083625;28;24067;-52
2022/11/25 10:57:55;;;;;;;;;;;26.40;92.70;;;;;;5083842;28;24081;-59
2022/11/25 11:00:28;;;;;;;;;;;26.40;92.80;;;;;;5083504;28;19946;-53
2022/11/25 11:02:54;;;;;;;;;;;26.30;92.80;;;;;;5083951;28;19911;-54
2022/11/25 11:05:28;;;;;;;;;;;26.30;92.90;;;;;;5083603;28;20093;-52
2022/11/25 11:08:09;;;;;;;;;;;26.30;92.80;;;;;;5083441;28;25104;-52
2022/11/25 11:10:35;;;;;;;;;;;26.30;92.80;;;;;;5083505;28;24108;-57
2022/11/25 11:13:17;;;;;;;;;;;26.30;92.90;;;;;;5081941;28;20096;-53
2022/11/25 11:15:43;;;;;;;;;;;26.30;92.80;;;;;;5083434;28;19908;-53
2022/11/25 11:18:27;;;;;;;;;;;26.40;92.80;;;;;;5083157;28;19958;-58
2022/11/25 11:20:57;;;;;;;;;;;26.40;92.80;;;;;;5083232;28;25107;-54
2022/11/25 11:23:24;;;;;;;;;;;26.40;92.70;;;;;;5084232;28;20084;-54
2022/11/25 11:26:01;;;;;;;;;;;26.40;92.70;;;;;;5083766;28;19971;-55
2022/11/25 11:28:27;;;;;;;;;;;26.40;92.80;;;;;;5083419;28;19908;-57
2022/11/25 11:31:02;;;;;;;;;;;26.40;92.50;;;;;;5083472;28;20261;-53
2022/11/25 11:33:34;;;;;;;;;;;26.40;92.70;;;;;;5080904;28;20131;-55
2022/11/25 11:36:16;;;;;;;;;;;26.50;92.80;;;;;;5082046;28;20041;-55
2022/11/25 11:38:52;;;;;;;;;;;26.50;92.70;;;;;;5085728;28;19915;-54
2022/11/25 11:41:37;;;;;;;;;;;26.50;92.70;;;;;;5086155;28;19931;-54
2022/11/25 11:44:09;;;;;;;;;;;26.50;92.70;;;;;;5086529;28;19912;-52
2022/11/25 11:46:55;;;;;;;;;;;26.60;92.70;;;;;;5086125;28;24080;-56
2022/11/25 11:49:21;;;;;;;;;;;26.60;92.70;;;;;;5087343;28;19911;-57
2022/11/25 11:51:47;;;;;;;;;;;26.60;92.70;;;;;;5087057;28;19915;-52
2022/11/25 11:54:24;;;;;;;;;;;26.60;92.60;;;;;;5084676;28;19927;-51
2022/11/25 11:56:56;;;;;;;;;;;26.70;92.70;;;;;;5078909;28;20204;-51
2022/11/25 11:59:33;;;;;;;;;;;26.70;92.60;;;;;;5078591;28;19905;-55
2022/11/25 12:02:17;;;;;;;;;;;26.80;92.50;;;;;;5086679;28;19987;-51
2022/11/25 12:04:48;;;;;;;;;;;26.80;92.50;;;;;;5066657;28;20195;-55
2022/11/25 12:07:21;;;;;;;;;;;26.80;92.40;;;;;;5066994;28;19958;-53
2022/11/25 12:09:56;;;;;;;;;;;26.80;92.50;;;;;;5066301;28;19905;-55
2022/11/25 12:12:29;;;;;;;;;;;26.90;92.50;;;;;;5067105;28;20241;-55
2022/11/25 12:14:59;;;;;;;;;;;26.90;92.40;;;;;;5080565;28;20104;-51
2022/11/25 12:17:40;;;;;;;;;;;26.90;92.40;;;;;;5087951;28;19975;-52
2022/11/25 12:20:21;;;;;;;;;;;26.90;92.50;;;;;;5086163;28;20333;-53
2022/11/25 12:22:51;;;;;;;;;;;26.90;92.60;;;;;;5085278;28;19943;-52
2022/11/25 12:25:20;;;;;;;;;;;27.00;92.40;;;;;;5085590;28;19943;-59
2022/11/25 12:27:56;;;;;;;;;;;27.00;92.40;;;;;;5085248;28;20277;-55
2022/11/25 12:30:23;;;;;;;;;;;27.00;92.50;;;;;;5086044;28;19904;-53
2022/11/25 12:33:15;;;;;;;;;;;27.10;92.30;;;;;;5086256;28;19933;-58
2022/11/25 12:35:59;;;;;;;;;;;27.10;92.20;;;;;;5035345;28;20090;-55
2022/11/25 12:38:37;;;;;;;;;;;27.10;92.30;;;;;;5084331;28;19912;-53
2022/11/25 12:41:26;;;;;;;;;;;27.10;92.20;;;;;;5085969;28;19915;-58
2022/11/25 12:43:59;;;;;;;;;;;27.10;92.20;;;;;;5085959;28;20092;-54
2022/11/25 12:46:37;;;;;;;;;;;27.20;92.20;;;;;;5086132;28;19943;-58
2022/11/25 12:49:06;;;;;;;;;;;27.20;92.30;;;;;;5085151;28;19908;-55
2022/11/25 12:51:32;;;;;;;;;;;27.20;92.10;;;;;;5084394;28;20045;-55
2022/11/25 12:54:07;;;;;;;;;;;27.20;92.10;;;;;;5085229;28;20212;-59
2022/11/25 12:56:52;;;;;;;;;;;27.30;92.20;;;;;;5085716;28;19908;-55
2022/11/25 12:59:29;;;;;;;;;;;27.30;92.10;;;;;;5084789;28;19950;-56
2022/11/25 13:02:13;;;;;;;;;;;27.30;92.00;;;;;;5073826;28;20096;-56
2022/11/25 13:04:45;;;;;;;;;;;27.30;92.00;;;;;;5069021;28;20048;-58
2022/11/25 13:07:32;;;;;;;;;;;27.30;92.00;;;;;;5085634;28;19950;-53
2022/11/25 13:10:11;;;;;;;;;;;27.30;92.00;;;;;;5082010;28;19952;-54
2022/11/25 13:12:37;;;;;;;;;;;27.40;92.00;;;;;;5085614;28;20042;-53
2022/11/25 13:15:14;;;;;;;;;;;27.30;92.00;;;;;;5084880;28;20039;-54
2022/11/25 13:17:42;;;;;;;;;;;27.40;92.00;;;;;;5085539;28;19912;-54
2022/11/25 13:20:26;;;;;;;;;;;27.40;92.10;;;;;;5084953;28;24080;-53
2022/11/25 13:23:01;;;;;;;;;;;27.40;91.90;;;;;;5084878;28;19908;-54
2022/11/25 13:25:31;;;;;;;;;;;27.50;91.90;;;;;;5084811;28;19904;-54
2022/11/25 13:27:58;;;;;;;;;;;27.50;92.00;;;;;;5084241;28;20035;-52
2022/11/25 13:30:33;;;;;;;;;;;27.60;92.00;;;;;;5085137;28;20030;-53
2022/11/25 13:33:09;;;;;;;;;;;27.50;91.90;;;;;;5084518;28;24092;-54
2022/11/25 13:35:37;;;;;;;;;;;27.60;92.00;;;;;;5085269;28;19905;-53
2022/11/25 13:38:06;;;;;;;;;;;27.60;91.90;;;;;;5083990;28;19916;-59
2022/11/25 13:40:36;;;;;;;;;;;27.70;91.70;;;;;;5083899;28;19905;-54
2022/11/25 13:43:02;;;;;;;;;;;27.60;91.90;;;;;;5075640;28;20086;-52
2022/11/25 13:45:41;;;;;;;;;;;27.70;91.90;;;;;;5072585;28;19909;-52
2022/11/25 13:48:11;;;;;;;;;;;27.70;91.90;;;;;;5073502;28;20046;-53
2022/11/25 13:50:37;;;;;;;;;;;27.70;91.70;;;;;;5069181;28;20100;-54
2022/11/25 13:53:17;;;;;;;;;;;27.70;91.70;;;;;;5073376;28;20045;-54
2022/11/25 13:55:43;;;;;;;;;;;27.70;91.60;;;;;;5076743;28;20050;-54
2022/11/25 13:58:09;;;;;;;;;;;27.70;91.90;;;;;;5084437;28;19950;-52
2022/11/25 14:00:35;;;;;;;;;;;27.70;91.70;;;;;;5084302;28;24064;-54
2022/11/25 14:03:20;;;;;;;;;;;27.80;91.70;;;;;;5084344;28;19965;-57
2022/11/25 14:06:01;;;;;;;;;;;27.80;91.60;;;;;;5071095;28;20095;-56
2022/11/25 14:08:33;;;;;;;;;;;27.80;91.40;;;;;;5075248;28;25099;-59
2022/11/25 14:11:09;;;;;;;;;;;27.80;91.50;;;;;;5064188;28;24054;-55
2022/11/25 14:13:35;;;;;;;;;;;27.80;91.60;;;;;;5080759;28;25064;-54
2022/11/25 14:16:16;;;;;;;;;;;27.80;91.50;;;;;;5075022;28;19909;-50
2022/11/25 14:18:50;;;;;;;;;;;27.90;91.70;;;;;;5072942;28;24086;-52
2022/11/25 14:21:35;;;;;;;;;;;27.90;91.60;;;;;;5064795;28;24092;-51
2022/11/25 14:24:02;;;;;;;;;;;27.90;91.60;;;;;;5063893;28;24111;-54
2022/11/25 14:26:33;;;;;;;;;;;27.90;91.40;;;;;;5063405;28;25089;-51
2022/11/25 14:29:12;;;;;;;;;;;27.90;91.60;;;;;;5063781;28;19905;-51
2022/11/25 14:31:40;;;;;;;;;;;28.00;91.50;;;;;;5063968;28;19908;-55
2022/11/25 14:34:25;;;;;;;;;;;27.90;91.70;;;;;;5063793;28;19905;-57